SAOC/RCU METAR and TAF weather

Enter ICAO airport designator
Station Type Date Time Source
SAOC METAR 2021/01/16 00:00 UTC NOAA

SAOC 160000Z 07005KT CAVOK 22/18 Q1005


Station Type Date Time Source
SAOC Decoded METAR 2021/01/16 00:00 UTC NOAA

Rio Cuarto Aerodrome, Argentina (SAOC) 33-07S 064-14W 421M
Jan 15, 2021 - 07:00 PM EST / 2021.01.16 0000 UTC
Wind: from the ENE (070 degrees) at 6 MPH (5 KT):0
Visibility: greater than 7 mile(s):0
Temperature: 71 F (22 C)
Dew Point: 64 F (18 C)
Relative Humidity: 78%
Pressure (altimeter): 29.68 in. Hg (1005 hPa)
ob: SAOC 160000Z 07005KT CAVOK 22/18 Q1005
cycle: 0

Station Type Date Time Source
SAOC TAF 2020/12/13 18:21 UTC NOAA

TAF SAOC 131700Z 1318/1418 20010KT 9999 FEW045 TX35/1418Z TN15/1409Z
BECMG 1412/1415 02010G25KT 8000 SCT030

Example: see airport list